Time;durP1;ratioP1;P1;durP2;ratioP2;P2;SDS_P1;SDS_P2;PMS_P1;PMS_P2;Temp;Humidity;BMP_temperature;BMP_pressure;BME280_temperature;BME280_humidity;BME280_pressure;Samples;Min_cycle;Max_cycle;Signal;HPM_P1;HPM_P2
2023/11/19 00:02:08;;;;;;;5.40;2.40;;;;;;;10.83;100.00;100681.03;4981758;28;20037;-76
2023/11/19 00:04:39;;;;;;;4.78;2.40;;;;;;;10.76;100.00;100677.47;5002787;28;20038;-78
2023/11/19 00:07:06;;;;;;;2.92;2.25;;;;;;;10.83;100.00;100665.47;4985389;28;20042;-81
2023/11/19 00:09:33;;;;;;;4.57;2.30;;;;;;;10.89;100.00;100663.03;4984899;28;20150;-78
2023/11/19 00:12:00;;;;;;;7.85;2.60;;;;;;;10.81;100.00;100662.22;4988461;28;20113;-78
2023/11/19 00:14:26;;;;;;;2.78;2.10;;;;;;;10.84;100.00;100677.47;5010463;28;20092;-77
2023/11/19 00:16:52;;;;;;;3.63;2.17;;;;;;;10.79;100.00;100669.34;4987013;28;20040;-78
2023/11/19 00:19:17;;;;;;;3.53;2.58;;;;;;;10.95;100.00;100669.38;5001035;28;20042;-79
2023/11/19 00:21:43;;;;;;;5.30;2.35;;;;;;;10.79;100.00;100667.56;4978928;28;20035;-80
2023/11/19 00:24:09;;;;;;;7.20;3.17;;;;;;;10.98;100.00;100669.06;4982110;28;20026;-78
2023/11/19 00:26:34;;;;;;;5.65;2.50;;;;;;;11.01;100.00;100670.50;5005106;28;20034;-77
2023/11/19 00:29:00;;;;;;;4.25;2.45;;;;;;;10.97;100.00;100672.63;4974861;28;20027;-76
2023/11/19 00:31:27;;;;;;;3.33;2.33;;;;;;;11.04;100.00;100670.19;4973664;28;20039;-78
2023/11/19 00:33:53;;;;;;;4.85;2.08;;;;;;;11.12;100.00;100671.97;4980500;28;20036;-77
2023/11/19 00:36:19;;;;;;;3.83;2.13;;;;;;;11.15;100.00;100663.84;4970212;28;20049;-80
2023/11/19 00:38:44;;;;;;;4.93;3.30;;;;;;;11.19;100.00;100654.75;4993265;28;20031;-76
2023/11/19 00:41:11;;;;;;;6.47;2.50;;;;;;;11.18;100.00;100664.34;4974622;28;20053;-80
2023/11/19 00:43:36;;;;;;;4.25;2.83;;;;;;;11.06;100.00;100668.25;4990395;28;20050;-79
2023/11/19 00:46:03;;;;;;;10.20;2.47;;;;;;;11.01;100.00;100668.72;4988227;28;20042;-78
2023/11/19 00:48:28;;;;;;;4.45;2.30;;;;;;;11.05;100.00;100661.44;4977473;28;20030;-78
2023/11/19 00:50:54;;;;;;;2.72;1.92;;;;;;;11.03;100.00;100659.00;4980645;28;20382;-78
2023/11/19 00:53:19;;;;;;;4.32;2.05;;;;;;;11.10;100.00;100654.78;4982141;28;20178;-77
2023/11/19 00:55:45;;;;;;;4.30;2.20;;;;;;;11.05;100.00;100649.25;4986079;28;20120;-78
2023/11/19 00:58:10;;;;;;;4.10;1.92;;;;;;;11.12;100.00;100646.84;4982095;28;20041;-78
2023/11/19 01:00:35;;;;;;;2.72;1.92;;;;;;;11.08;100.00;100641.16;4983183;28;20030;-78
2023/11/19 01:03:01;;;;;;;2.97;1.88;;;;;;;11.10;100.00;100657.38;5002434;28;20037;-77
2023/11/19 01:05:28;;;;;;;5.70;1.90;;;;;;;11.09;100.00;100637.59;4981019;28;20038;-77
2023/11/19 01:07:54;;;;;;;4.45;1.75;;;;;;;11.24;100.00;100637.72;4990977;28;20029;-77
2023/11/19 01:10:20;;;;;;;3.28;1.50;;;;;;;11.17;100.00;100638.53;4981482;28;20636;-77
2023/11/19 01:12:46;;;;;;;3.75;1.80;;;;;;;11.26;100.00;100645.34;4981113;28;20400;-77
2023/11/19 01:15:11;;;;;;;2.28;2.00;;;;;;;11.16;100.00;100636.94;4999220;28;20027;-77
2023/11/19 01:17:40;;;;;;;2.72;1.42;;;;;;;11.19;100.00;100623.63;4979992;28;20092;-79
2023/11/19 01:20:06;;;;;;;4.38;1.50;;;;;;;11.19;100.00;100627.03;4974458;28;20030;-78
2023/11/19 01:22:33;;;;;;;4.78;1.48;;;;;;;11.16;100.00;100631.75;4985905;28;20517;-80
2023/11/19 01:24:58;;;;;;;2.85;1.30;;;;;;;11.25;100.00;100634.16;4972989;28;20042;-78
2023/11/19 01:27:24;;;;;;;3.83;1.40;;;;;;;11.22;100.00;100647.47;4987109;28;20045;-77
2023/11/19 01:29:50;;;;;;;5.55;1.85;;;;;;;11.23;100.00;100650.88;4986490;28;20113;-79
2023/11/19 01:32:15;;;;;;;5.05;1.50;;;;;;;11.26;100.00;100640.16;4985992;28;20034;-78
2023/11/19 01:34:41;;;;;;;6.88;1.65;;;;;;;11.25;100.00;100646.34;4976431;28;20034;-79
2023/11/19 01:37:12;;;;;;;2.38;1.80;;;;;;;11.21;100.00;100642.47;4972563;28;20043;-78
2023/11/19 01:39:37;;;;;;;2.38;1.30;;;;;;;11.22;100.00;100651.84;4977522;28;20041;-78
2023/11/19 01:42:03;;;;;;;3.42;1.80;;;;;;;11.25;100.00;100641.94;4984220;28;20029;-80
2023/11/19 01:44:29;;;;;;;7.28;1.80;;;;;;;11.29;100.00;100632.06;4984106;28;20086;-77
2023/11/19 01:46:54;;;;;;;4.07;2.03;;;;;;;11.27;100.00;100637.41;4983420;28;20041;-78
2023/11/19 01:49:20;;;;;;;4.60;1.60;;;;;;;11.29;100.00;100635.47;4982514;28;20030;-79
2023/11/19 01:51:47;;;;;;;4.82;1.80;;;;;;;11.39;100.00;100639.66;4987748;28;20104;-78
2023/11/19 01:54:15;;;;;;;4.82;1.52;;;;;;;11.41;100.00;100638.50;4985156;28;20036;-78
2023/11/19 01:56:41;;;;;;;5.82;1.73;;;;;;;11.30;100.00;100636.25;4987941;28;20044;-78
2023/11/19 01:59:10;;;;;;;3.40;1.33;;;;;;;11.27;100.00;100641.78;4973896;28;21719;-77
2023/11/19 02:01:39;;;;;;;4.50;1.50;;;;;;;11.33;100.00;100635.13;4980440;28;20026;-77
2023/11/19 02:04:06;;;;;;;4.65;1.60;;;;;;;11.33;100.00;100627.34;4985358;28;20117;-78
2023/11/19 02:06:34;;;;;;;3.72;1.40;;;;;;;11.29;100.00;100619.06;4984930;28;20049;-77
2023/11/19 02:09:00;;;;;;;6.85;1.75;;;;;;;11.27;100.00;100619.25;4985110;28;20025;-79
2023/11/19 02:11:29;;;;;;;6.78;2.28;;;;;;;11.29;100.00;100606.91;4969052;28;20157;-77
2023/11/19 02:13:56;;;;;;;10.23;2.28;;;;;;;11.34;100.00;100608.19;4979555;28;20028;-79
2023/11/19 02:16:21;;;;;;;4.07;1.70;;;;;;;11.39;100.00;100591.13;4995728;28;20041;-79
2023/11/19 02:18:48;;;;;;;11.95;2.15;;;;;;;11.44;100.00;100572.47;4967430;28;20045;-77
2023/11/19 02:21:14;;;;;;;10.65;2.40;;;;;;;11.49;100.00;100572.78;4984758;28;20038;-78
2023/11/19 02:23:40;;;;;;;9.98;2.13;;;;;;;11.48;100.00;100574.56;4995272;28;20046;-79
2023/11/19 02:26:38;;;;;;;9.25;2.40;;;;;;;11.46;100.00;100560.13;4980288;28;20045;-77
2023/11/19 02:29:04;;;;;;;11.60;2.72;;;;;;;11.34;100.00;100572.69;4914867;28;20380;-79
2023/11/19 02:31:29;;;;;;;13.57;2.50;;;;;;;11.41;100.00;100565.81;4982956;28;20100;-79
2023/11/19 02:33:55;;;;;;;12.27;2.92;;;;;;;11.35;100.00;100565.69;4982171;28;20045;-77
2023/11/19 02:36:21;;;;;;;8.48;2.55;;;;;;;11.36;100.00;100562.09;4987178;28;20089;-77
2023/11/19 02:38:47;;;;;;;10.60;2.80;;;;;;;11.37;100.00;100574.13;4975024;28;20034;-79
2023/11/19 02:41:14;;;;;;;15.00;3.58;;;;;;;11.37;100.00;100563.72;4987100;28;20041;-78
2023/11/19 02:43:39;;;;;;;12.48;2.58;;;;;;;11.42;100.00;100574.44;4970600;28;20030;-77
2023/11/19 02:46:08;;;;;;;16.50;2.88;;;;;;;11.48;100.00;100576.34;4987410;28;20069;-77
2023/11/19 02:48:35;;;;;;;16.98;2.95;;;;;;;11.39;100.00;100569.56;4998926;28;20029;-77
2023/11/19 02:51:03;;;;;;;10.75;2.65;;;;;;;11.47;100.00;100564.34;4988572;28;20034;-77
2023/11/19 02:53:29;;;;;;;11.30;2.85;;;;;;;11.62;100.00;100552.31;4982846;28;20056;-77
2023/11/19 02:56:00;;;;;;;18.67;2.92;;;;;;;11.58;100.00;100557.97;4973901;28;20605;-77
2023/11/19 02:58:28;;;;;;;15.00;3.22;;;;;;;11.48;100.00;100556.38;4997643;28;20500;-77
2023/11/19 03:00:57;;;;;;;19.15;2.90;;;;;;;11.57;100.00;100553.78;4982964;28;20621;-77
2023/11/19 03:03:28;;;;;;;14.43;2.92;;;;;;;11.58;100.00;100545.00;4977245;28;20030;-77
2023/11/19 03:05:55;;;;;;;19.33;3.50;;;;;;;11.60;100.00;100537.84;4979942;28;20742;-78
2023/11/19 03:08:20;;;;;;;19.25;3.10;;;;;;;11.62;100.00;100523.72;4961559;28;20042;-80
2023/11/19 03:10:46;;;;;;;16.52;2.60;;;;;;;11.59;100.00;100542.25;4972578;28;20031;-77
2023/11/19 03:13:13;;;;;;;21.15;2.92;;;;;;;11.64;100.00;100534.75;4983693;28;20528;-77
2023/11/19 03:15:40;;;;;;;17.67;2.80;;;;;;;11.60;100.00;100530.88;4969008;28;20378;-77
2023/11/19 03:18:05;;;;;;;12.05;3.05;;;;;;;11.58;100.00;100539.81;4974572;28;20044;-78
2023/11/19 03:20:31;;;;;;;23.00;3.83;;;;;;;11.72;100.00;100540.91;4975600;28;20049;-77
2023/11/19 03:22:57;;;;;;;16.63;2.42;;;;;;;11.61;100.00;100535.09;5000790;28;20045;-77
2023/11/19 03:25:26;;;;;;;12.63;2.72;;;;;;;11.63;100.00;100532.31;5003561;28;20038;-77
2023/11/19 03:27:53;;;;;;;19.42;3.22;;;;;;;11.67;100.00;100526.59;4991881;28;20038;-77
2023/11/19 03:30:20;;;;;;;13.10;2.95;;;;;;;11.73;100.00;100534.72;4991489;28;20527;-79
2023/11/19 03:32:46;;;;;;;15.90;2.28;;;;;;;11.74;100.00;100534.53;4989160;28;20096;-77
2023/11/19 03:35:12;;;;;;;14.48;2.50;;;;;;;11.64;100.00;100537.34;4993012;28;20046;-78
2023/11/19 03:37:37;;;;;;;16.05;2.83;;;;;;;11.59;100.00;100531.84;4980652;28;20042;-78
2023/11/19 03:40:04;;;;;;;29.48;3.25;;;;;;;11.50;100.00;100536.25;4988227;28;20444;-78
2023/11/19 03:42:30;;;;;;;24.77;2.80;;;;;;;11.56;100.00;100539.16;4975903;28;20083;-76
2023/11/19 03:44:56;;;;;;;21.88;3.42;;;;;;;11.47;100.00;100553.94;4986749;28;20034;-78
2023/11/19 03:47:22;;;;;;;28.25;3.13;;;;;;;11.48;100.00;100558.19;5008078;28;20029;-77
2023/11/19 03:49:51;;;;;;;26.45;3.20;;;;;;;11.46;100.00;100554.94;4989715;28;20065;-77
2023/11/19 03:52:18;;;;;;;19.35;3.33;;;;;;;11.50;100.00;100554.44;4993051;28;20111;-77
2023/11/19 03:54:45;;;;;;;28.15;3.50;;;;;;;11.50;100.00;100566.63;4987088;28;20576;-78
2023/11/19 03:57:12;;;;;;;22.52;3.47;;;;;;;11.45;100.00;100567.13;4978141;28;20032;-78
2023/11/19 03:59:37;;;;;;;16.02;2.30;;;;;;;11.36;100.00;100556.91;4977514;28;20121;-80
2023/11/19 04:02:03;;;;;;;22.48;2.70;;;;;;;11.44;100.00;100557.72;4991417;28;20469;-77
2023/11/19 04:04:31;;;;;;;26.85;4.07;;;;;;;11.35;100.00;100553.50;5005442;28;20563;-78
2023/11/19 04:06:58;;;;;;;25.95;3.13;;;;;;;11.44;100.00;100549.13;4988376;28;20038;-78
2023/11/19 04:09:23;;;;;;;16.40;3.72;;;;;;;11.24;100.00;100541.69;4980542;28;20030;-78
2023/11/19 04:11:49;;;;;;;15.57;2.92;;;;;;;11.27;100.00;100537.97;4977688;28;20026;-77
2023/11/19 04:14:14;;;;;;;23.85;3.03;;;;;;;11.14;100.00;100533.28;4978827;28;20089;-77
2023/11/19 04:16:40;;;;;;;25.65;3.58;;;;;;;11.24;100.00;100540.88;4994981;28;20041;-77
2023/11/19 04:19:06;;;;;;;22.85;3.10;;;;;;;11.12;100.00;100556.00;4974721;28;20084;-78
2023/11/19 04:21:32;;;;;;;25.55;3.35;;;;;;;11.18;100.00;100557.13;4991001;28;20026;-79
2023/11/19 04:23:58;;;;;;;20.23;3.38;;;;;;;11.09;100.00;100562.34;4998694;28;20492;-77
2023/11/19 04:26:23;;;;;;;30.50;3.83;;;;;;;11.01;100.00;100567.53;4985940;28;20026;-78
2023/11/19 04:28:49;;;;;;;20.30;2.85;;;;;;;11.14;100.00;100574.00;4979043;28;20513;-78
2023/11/19 04:31:16;;;;;;;25.52;3.05;;;;;;;11.14;100.00;100566.22;4993072;28;20034;-78
2023/11/19 04:33:42;;;;;;;24.58;2.88;;;;;;;11.14;100.00;100555.84;5011708;28;20021;-78
2023/11/19 04:36:08;;;;;;;20.80;3.95;;;;;;;11.10;100.00;100557.97;4981780;28;20596;-78
2023/11/19 04:38:33;;;;;;;21.85;3.15;;;;;;;11.08;100.00;100562.50;4983081;28;20034;-77
2023/11/19 04:40:58;;;;;;;25.98;3.85;;;;;;;11.09;100.00;100558.91;4999987;28;20045;-77
2023/11/19 04:43:24;;;;;;;26.52;3.80;;;;;;;11.01;100.00;100554.56;5005305;28;20034;-77
2023/11/19 04:45:49;;;;;;;21.20;2.65;;;;;;;11.03;100.00;100555.19;4988553;28;20527;-78
2023/11/19 04:48:15;;;;;;;34.50;4.10;;;;;;;11.07;100.00;100555.69;5005573;28;20025;-78
2023/11/19 04:50:40;;;;;;;22.27;4.35;;;;;;;10.97;100.00;100548.09;4973508;28;20046;-78
2023/11/19 04:53:06;;;;;;;24.27;3.70;;;;;;;11.06;100.00;100561.88;4977846;28;20030;-77
2023/11/19 04:55:31;;;;;;;31.30;3.50;;;;;;;11.04;100.00;100556.84;4969384;28;20097;-77
2023/11/19 04:57:56;;;;;;;25.48;3.17;;;;;;;11.08;100.00;100560.72;4987645;28;20033;-77
2023/11/19 05:00:22;;;;;;;23.90;5.20;;;;;;;11.02;100.00;100548.41;4979328;28;20041;-76
2023/11/19 05:02:47;;;;;;;20.73;4.40;;;;;;;10.99;100.00;100545.34;5002197;28;20551;-77
2023/11/19 05:05:15;;;;;;;25.67;4.40;;;;;;;11.07;100.00;100559.09;4971132;28;22306;-78
2023/11/19 05:07:40;;;;;;;27.17;3.88;;;;;;;10.99;100.00;100545.34;5001374;28;20034;-79
2023/11/19 05:10:06;;;;;;;27.00;3.45;;;;;;;11.01;100.00;100551.97;4975670;28;20041;-77
2023/11/19 05:12:32;;;;;;;31.63;3.25;;;;;;;11.03;100.00;100555.19;4986162;28;20034;-81
2023/11/19 05:14:57;;;;;;;26.88;2.90;;;;;;;11.09;100.00;100562.34;4981573;28;20120;-78
2023/11/19 05:17:23;;;;;;;33.35;3.65;;;;;;;11.11;100.00;100554.38;4990155;28;20025;-77
2023/11/19 05:19:49;;;;;;;32.85;3.70;;;;;;;11.08;100.00;100557.31;4991017;28;20088;-78
2023/11/19 05:22:14;;;;;;;33.72;3.90;;;;;;;11.02;100.00;100569.16;5007124;28;20057;-78
2023/11/19 05:24:40;;;;;;;28.40;3.30;;;;;;;10.97;100.00;100570.63;5003489;28;20121;-77
2023/11/19 05:27:07;;;;;;;34.92;4.30;;;;;;;11.10;100.00;100582.13;5004007;28;20481;-79
2023/11/19 05:29:33;;;;;;;20.77;2.78;;;;;;;11.04;100.00;100587.97;4973908;28;20147;-77
2023/11/19 05:31:58;;;;;;;28.13;6.13;;;;;;;11.13;100.00;100601.72;4988441;28;20109;-78
2023/11/19 05:34:24;;;;;;;31.05;5.60;;;;;;;11.03;100.00;100588.94;4983886;28;20043;-79
2023/11/19 05:36:50;;;;;;;71.25;20.33;;;;;;;11.10;100.00;100584.72;4981475;28;20085;-79
2023/11/19 05:39:16;;;;;;;44.03;10.40;;;;;;;11.13;100.00;100585.34;4990065;28;20042;-77
2023/11/19 05:41:42;;;;;;;29.52;6.28;;;;;;;11.06;100.00;100585.22;4985556;28;22979;-79
2023/11/19 05:44:07;;;;;;;32.17;6.63;;;;;;;11.06;100.00;100578.22;4985652;28;20030;-78
2023/11/19 05:46:33;;;;;;;40.20;10.00;;;;;;;11.02;100.00;100582.13;4980578;28;20030;-78
2023/11/19 05:48:58;;;;;;;26.65;7.68;;;;;;;11.07;100.00;100594.59;4982400;28;20504;-77
2023/11/19 05:51:24;;;;;;;33.50;4.88;;;;;;;11.03;100.00;100594.13;4981721;28;20041;-77
2023/11/19 05:53:50;;;;;;;29.00;6.25;;;;;;;11.08;100.00;100598.84;4999988;28;20189;-77
2023/11/19 05:56:21;;;;;;;25.20;5.22;;;;;;;11.02;100.00;100605.50;4995114;28;20078;-78
2023/11/19 05:58:48;;;;;;;28.08;4.93;;;;;;;11.00;100.00;100602.25;4985912;28;20449;-78
2023/11/19 06:01:13;;;;;;;27.35;5.03;;;;;;;10.95;100.00;100603.72;4984811;28;20037;-77
2023/11/19 06:03:39;;;;;;;34.30;5.40;;;;;;;10.97;100.00;100609.53;4979059;28;20064;-76
2023/11/19 06:06:05;;;;;;;22.13;5.13;;;;;;;10.96;100.00;100613.09;5001619;28;20045;-77
2023/11/19 06:08:31;;;;;;;27.20;5.25;;;;;;;10.90;100.00;100609.38;5003998;28;20034;-80
2023/11/19 06:10:56;;;;;;;31.38;5.68;;;;;;;10.98;100.00;100601.59;4983930;28;20038;-78
2023/11/19 06:13:22;;;;;;;29.15;7.20;;;;;;;10.94;100.00;100610.66;5000294;28;20703;-77
2023/11/19 06:15:47;;;;;;;39.47;6.63;;;;;;;10.95;100.00;100614.09;4973895;28;20048;-78
2023/11/19 06:18:14;;;;;;;23.02;5.53;;;;;;;10.91;100.00;100611.00;4983441;28;20034;-86
2023/11/19 06:20:40;;;;;;;30.77;6.55;;;;;;;10.90;100.00;100606.78;4982083;28;20034;-78
2023/11/19 06:23:06;;;;;;;40.58;6.45;;;;;;;10.76;100.00;100604.84;4988627;28;20076;-77
2023/11/19 06:25:32;;;;;;;31.95;3.95;;;;;;;10.82;100.00;100605.00;4973191;28;20038;-78
2023/11/19 06:27:58;;;;;;;32.40;4.43;;;;;;;10.81;100.00;100610.34;4974557;28;20066;-77
2023/11/19 06:30:24;;;;;;;26.45;3.90;;;;;;;10.77;100.00;100604.66;5003178;28;20046;-78
2023/11/19 06:32:49;;;;;;;35.35;5.45;;;;;;;10.75;100.00;100605.81;4977067;28;20057;-77
2023/11/19 06:35:15;;;;;;;32.40;4.28;;;;;;;10.73;100.00;100597.38;5002428;28;20632;-77
2023/11/19 06:37:41;;;;;;;31.38;3.80;;;;;;;10.69;100.00;100607.25;4987947;28;20508;-80
2023/11/19 06:40:09;;;;;;;29.05;5.57;;;;;;;10.64;100.00;100614.72;4978413;28;20092;-78
2023/11/19 06:42:35;;;;;;;103.45;33.63;;;;;;;10.66;100.00;100616.19;4989831;28;20050;-78
2023/11/19 06:45:00;;;;;;;85.80;25.05;;;;;;;10.44;100.00;100607.25;4984410;28;20120;-78
2023/11/19 06:47:29;;;;;;;61.70;15.65;;;;;;;10.50;100.00;100618.75;4990476;28;20042;-79
2023/11/19 06:49:55;;;;;;;49.20;15.75;;;;;;;10.44;100.00;100620.19;5000264;28;20795;-78
2023/11/19 06:52:21;;;;;;;33.60;9.50;;;;;;;10.53;100.00;100621.03;4987971;28;20026;-78
2023/11/19 06:54:47;;;;;;;41.60;10.60;;;;;;;10.43;100.00;100615.16;5003589;28;20511;-80
2023/11/19 06:57:13;;;;;;;34.03;4.78;;;;;;;10.53;100.00;100613.25;5005653;28;20507;-78
2023/11/19 06:59:39;;;;;;;56.50;14.10;;;;;;;10.47;100.00;100608.69;4983542;28;20069;-79
2023/11/19 07:02:05;;;;;;;46.95;11.25;;;;;;;10.48;100.00;100618.91;4970933;28;20022;-78
2023/11/19 07:04:31;;;;;;;49.28;10.85;;;;;;;10.37;100.00;100628.78;4985392;28;20584;-78
2023/11/19 07:06:57;;;;;;;40.72;6.90;;;;;;;10.39;100.00;100629.44;4983759;28;20038;-78
2023/11/19 07:09:23;;;;;;;38.08;9.02;;;;;;;10.50;100.00;100634.31;4975727;28;20037;-78
2023/11/19 07:11:50;;;;;;;41.88;9.93;;;;;;;10.36;100.00;100627.97;4971223;28;20700;-78
2023/11/19 07:14:16;;;;;;;34.92;5.03;;;;;;;10.25;100.00;100631.63;5000494;28;20101;-77
2023/11/19 07:16:42;;;;;;;26.67;3.65;;;;;;;10.43;100.00;100639.31;4984225;28;20489;-78
2023/11/19 07:19:08;;;;;;;34.28;4.47;;;;;;;10.45;100.00;100627.03;4983298;28;20038;-79
2023/11/19 07:21:33;;;;;;;42.83;8.77;;;;;;;10.40;100.00;100624.09;4997867;28;20081;-79
2023/11/19 07:23:59;;;;;;;36.53;5.55;;;;;;;10.35;100.00;100622.94;4970291;28;20072;-77
2023/11/19 07:26:25;;;;;;;50.95;11.63;;;;;;;10.41;100.00;100614.53;4975503;28;20049;-77
2023/11/19 07:28:51;;;;;;;34.60;5.13;;;;;;;10.28;100.00;100620.13;4987930;28;20036;-78
2023/11/19 07:31:19;;;;;;;38.03;4.35;;;;;;;10.33;100.00;100626.47;4969118;28;20038;-77
2023/11/19 07:33:45;;;;;;;39.22;6.40;;;;;;;10.36;100.00;100629.72;4968370;28;20041;-77
2023/11/19 07:36:12;;;;;;;39.70;6.75;;;;;;;10.37;100.00;100634.75;4978156;28;20046;-78
2023/11/19 07:38:38;;;;;;;37.67;6.93;;;;;;;10.47;100.00;100632.84;5005775;28;20048;-78
2023/11/19 07:41:05;;;;;;;34.28;3.65;;;;;;;10.50;100.00;100634.31;4967236;28;20034;-77
2023/11/19 07:43:30;;;;;;;31.50;5.00;;;;;;;10.42;100.00;100644.66;4993373;28;20053;-82
2023/11/19 07:45:58;;;;;;;30.60;4.00;;;;;;;10.35;100.00;100638.50;4982552;28;20581;-78
2023/11/19 07:48:24;;;;;;;49.83;11.30;;;;;;;10.37;100.00;100655.50;4984905;28;20069;-78
2023/11/19 07:50:50;;;;;;;39.95;4.80;;;;;;;10.43;100.00;100649.66;4982878;28;20070;-79
2023/11/19 07:53:16;;;;;;;33.15;3.85;;;;;;;10.48;100.00;100652.59;4961541;28;20033;-79
2023/11/19 07:55:41;;;;;;;35.22;4.75;;;;;;;10.44;100.00;100660.88;4985075;28;21679;-78
2023/11/19 07:58:07;;;;;;;47.88;6.70;;;;;;;10.50;100.00;100660.22;4985485;28;20041;-78
2023/11/19 08:00:33;;;;;;;29.63;3.72;;;;;;;10.53;100.00;100654.75;4990307;28;20041;-78
2023/11/19 08:02:58;;;;;;;34.65;4.70;;;;;;;10.56;100.00;100661.38;4994192;28;20041;-79
2023/11/19 08:05:24;;;;;;;29.63;4.88;;;;;;;10.67;100.00;100667.06;4984237;28;20031;-77
2023/11/19 08:07:51;;;;;;;29.58;4.10;;;;;;;10.61;100.00;100662.53;4985822;28;20055;-78
2023/11/19 08:10:17;;;;;;;30.13;4.20;;;;;;;10.65;100.00;100674.19;4984563;28;20038;-78
2023/11/19 08:12:42;;;;;;;34.17;4.30;;;;;;;10.75;100.00;100678.44;5008270;28;20092;-77
2023/11/19 08:15:09;;;;;;;38.38;4.05;;;;;;;10.75;100.00;100670.66;5003162;28;20052;-79
2023/11/19 08:17:34;;;;;;;29.92;4.22;;;;;;;10.81;100.00;100695.94;4986045;28;20033;-77
2023/11/19 08:20:00;;;;;;;24.30;3.80;;;;;;;10.92;100.00;100695.63;5007383;28;20038;-77
2023/11/19 08:22:25;;;;;;;57.72;16.20;;;;;;;10.94;100.00;100687.69;5004865;28;20049;-78
2023/11/19 08:24:51;;;;;;;31.85;5.15;;;;;;;10.90;100.00;100684.59;4989809;28;20039;-79
2023/11/19 08:27:16;;;;;;;28.58;5.18;;;;;;;10.96;100.00;100675.38;4990085;28;20493;-80
2023/11/19 08:29:42;;;;;;;26.60;3.72;;;;;;;10.91;100.00;100684.44;5004304;28;20054;-79
2023/11/19 08:32:07;;;;;;;31.00;4.85;;;;;;;10.88;100.00;100679.56;4993730;28;20030;-79
2023/11/19 08:34:33;;;;;;;31.23;3.72;;;;;;;11.02;100.00;100683.31;4977895;28;20034;-77
2023/11/19 08:36:59;;;;;;;28.08;3.50;;;;;;;10.99;100.00;100678.44;4977444;28;20029;-77
2023/11/19 08:39:25;;;;;;;44.17;7.50;;;;;;;11.14;100.00;100683.81;4986651;28;20034;-77
2023/11/19 08:41:50;;;;;;;40.58;4.93;;;;;;;11.17;100.00;100680.06;4971335;28;20031;-78
2023/11/19 08:44:16;;;;;;;31.25;4.13;;;;;;;11.23;100.00;100689.81;4984691;28;20034;-78
2023/11/19 08:46:51;;;;;;;34.60;5.25;;;;;;;11.24;100.00;100686.25;5004055;28;20085;-77
2023/11/19 08:49:18;;;;;;;32.47;6.32;;;;;;;11.29;100.00;100692.56;4990881;28;20453;-79
2023/11/19 08:51:44;;;;;;;28.25;5.57;;;;;;;11.40;100.00;100696.63;4964119;28;20034;-78
2023/11/19 08:54:10;;;;;;;33.63;5.88;;;;;;;11.34;100.00;100699.88;4990512;28;20033;-77
2023/11/19 08:56:36;;;;;;;41.22;8.10;;;;;;;11.21;100.00;100705.56;4971594;28;20034;-80
2023/11/19 08:59:02;;;;;;;38.72;6.50;;;;;;;11.28;100.00;100709.13;4982861;28;20057;-79
2023/11/19 09:01:28;;;;;;;48.58;10.05;;;;;;;11.36;100.00;100707.47;4986996;28;20409;-79
2023/11/19 09:03:54;;;;;;;40.42;6.10;;;;;;;11.34;100.00;100694.69;4981396;28;20036;-78
2023/11/19 09:06:19;;;;;;;53.03;14.73;;;;;;;11.39;100.00;100704.56;4978423;28;20037;-79
2023/11/19 09:08:45;;;;;;;57.63;17.35;;;;;;;11.45;100.00;100706.50;5009181;28;20038;-78
2023/11/19 09:11:10;;;;;;;37.92;5.43;;;;;;;11.50;100.00;100709.41;4965643;28;20509;-79
2023/11/19 09:13:36;;;;;;;43.00;10.65;;;;;;;11.60;100.00;100704.88;4985977;28;20642;-77
2023/11/19 09:16:04;;;;;;;28.40;4.18;;;;;;;11.63;100.00;100701.94;4969103;28;20210;-80
2023/11/19 09:18:31;;;;;;;36.40;4.88;;;;;;;11.55;100.00;100688.16;5002176;28;20439;-78
2023/11/19 09:20:57;;;;;;;38.92;8.43;;;;;;;11.60;100.00;100704.03;4976008;28;20165;-79
2023/11/19 09:23:24;;;;;;;42.47;9.05;;;;;;;11.52;100.00;100704.88;5009160;28;20120;-80
2023/11/19 09:25:49;;;;;;;87.63;19.10;;;;;;;11.65;100.00;100699.97;4991882;28;20038;-78
2023/11/19 09:28:15;;;;;;;77.78;16.98;;;;;;;11.64;100.00;100697.53;4970795;28;20112;-78
2023/11/19 09:30:40;;;;;;;28.30;6.43;;;;;;;11.69;100.00;100700.47;4975140;28;20034;-80
2023/11/19 09:33:06;;;;;;;50.58;8.15;;;;;;;11.77;100.00;100702.22;4985176;28;20572;-80
2023/11/19 09:35:31;;;;;;;37.35;5.85;;;;;;;11.78;100.00;100698.66;4991624;28;20120;-79
2023/11/19 09:37:59;;;;;;;31.52;4.00;;;;;;;11.77;100.00;100700.47;4981276;28;20450;-82
2023/11/19 09:40:24;;;;;;;31.50;4.63;;;;;;;11.77;100.00;100707.44;4986391;28;20033;-78
2023/11/19 09:42:50;;;;;;;30.42;6.20;;;;;;;11.69;100.00;100700.47;4973553;28;20404;-80
2023/11/19 09:45:17;;;;;;;42.95;5.97;;;;;;;11.72;100.00;100704.53;4985440;28;20060;-79
2023/11/19 09:47:45;;;;;;;30.98;4.30;;;;;;;11.79;100.00;100708.91;4998200;28;20026;-78
2023/11/19 09:50:16;;;;;;;37.42;6.32;;;;;;;11.75;100.00;100702.38;4983634;28;20041;-78
2023/11/19 09:52:42;;;;;;;31.63;4.95;;;;;;;11.73;100.00;100686.16;4979013;28;20030;-79
2023/11/19 09:55:08;;;;;;;35.55;6.38;;;;;;;11.89;100.00;100690.53;5002627;28;20509;-78
2023/11/19 09:57:36;;;;;;;41.60;6.47;;;;;;;11.87;100.00;100680.28;4978854;28;20091;-81
2023/11/19 10:00:04;;;;;;;25.58;3.58;;;;;;;11.84;100.00;100685.00;4979340;28;20030;-79
2023/11/19 10:02:32;;;;;;;30.23;3.83;;;;;;;11.88;100.00;100683.69;5000444;28;20026;-81
2023/11/19 10:05:01;;;;;;;31.55;4.88;;;;;;;11.86;100.00;100685.66;4973696;28;20038;-80
2023/11/19 10:07:27;;;;;;;31.23;6.15;;;;;;;12.03;100.00;100687.25;5003513;23;20045;-76
2023/11/19 10:09:53;;;;;;;25.38;4.07;;;;;;;12.03;100.00;100687.25;5008057;28;21466;-76
2023/11/19 10:12:18;;;;;;;34.58;7.63;;;;;;;12.12;100.00;100682.03;5026459;28;20891;-76
2023/11/19 10:14:45;;;;;;;42.72;7.38;;;;;;;12.08;100.00;100678.97;5024088;28;20041;-75
2023/11/19 10:17:10;;;;;;;41.95;8.20;;;;;;;12.08;100.00;100684.16;5014906;28;20479;-76
2023/11/19 10:19:36;;;;;;;38.08;10.13;;;;;;;12.17;100.00;100680.53;5002829;28;20029;-76
2023/11/19 10:22:04;;;;;;;23.58;4.88;;;;;;;12.15;100.00;100677.31;5011676;28;20618;-77
2023/11/19 10:24:33;;;;;;;39.85;4.90;;;;;;;12.17;100.00;100677.13;5021872;28;20112;-75
2023/11/19 10:27:03;;;;;;;27.20;4.18;;;;;;;12.24;100.00;100686.69;5019691;28;20124;-75
2023/11/19 10:29:31;;;;;;;34.60;5.82;;;;;;;12.25;100.00;100685.69;5002143;28;20079;-75
2023/11/19 10:31:58;;;;;;;38.38;6.10;;;;;;;12.15;100.00;100682.50;5041977;28;20069;-75
2023/11/19 10:34:27;;;;;;;30.00;4.57;;;;;;;12.19;99.08;100686.38;5022049;28;20106;-75
2023/11/19 10:36:53;;;;;;;34.28;4.70;;;;;;;12.23;99.15;100690.25;5024002;28;20034;-75
2023/11/19 10:39:20;;;;;;;36.83;5.78;;;;;;;12.24;98.35;100691.91;5009107;28;20037;-75
2023/11/19 10:41:46;;;;;;;32.42;5.32;;;;;;;12.22;99.07;100688.66;5006393;28;20052;-76
2023/11/19 10:44:11;;;;;;;31.38;5.70;;;;;;;12.20;98.91;100690.59;5023752;28;20487;-76
2023/11/19 10:46:41;;;;;;;29.30;4.82;;;;;;;12.23;98.60;100685.06;5023185;28;20040;-76
2023/11/19 10:49:08;;;;;;;31.70;4.68;;;;;;;12.30;97.99;100689.56;5021548;28;20041;-76
2023/11/19 10:51:33;;;;;;;30.65;6.10;;;;;;;12.29;97.97;100688.78;5023179;28;20030;-75
2023/11/19 10:54:05;;;;;;;31.60;4.28;;;;;;;12.15;97.84;100695.50;5025126;28;20431;-76
2023/11/19 10:56:35;;;;;;;26.60;4.10;;;;;;;12.31;97.00;100684.22;5023138;28;20042;-75
2023/11/19 10:59:02;;;;;;;43.97;5.30;;;;;;;12.27;97.55;100694.13;5023374;28;20490;-76
2023/11/19 11:01:43;;;;;;;35.38;5.25;;;;;;;12.44;97.35;100683.66;5024706;28;20443;-76
2023/11/19 11:04:15;;;;;;;33.97;8.30;;;;;;;12.54;96.75;100665.22;5022722;28;20838;-75
2023/11/19 11:06:41;;;;;;;33.50;5.20;;;;;;;12.58;95.55;100680.34;5023355;28;20386;-75
2023/11/19 11:09:11;;;;;;;30.20;5.65;;;;;;;12.51;96.16;100696.78;5039180;28;20047;-75